Time;durP1;ratioP1;P1;durP2;ratioP2;P2;SDS_P1;SDS_P2;PMS_P1;PMS_P2;Temp;Humidity;BMP_temperature;BMP_pressure;BME280_temperature;BME280_humidity;BME280_pressure;Samples;Min_cycle;Max_cycle;Signal;HPM_P1;HPM_P2
2022/07/28 00:01:08;;;;;;;4.08;3.62;;;;;;;18.46;100.00;99629.47;1832494;77;21597;-66
2022/07/28 00:03:35;;;;;;;4.90;3.17;;;;;;;18.44;100.00;99630.38;1838646;77;21092;-65
2022/07/28 00:06:02;;;;;;;6.67;3.15;;;;;;;18.43;100.00;99635.64;1829460;77;21026;-65
2022/07/28 00:08:29;;;;;;;4.00;3.27;;;;;;;18.44;100.00;99630.38;1833175;77;21045;-65
2022/07/28 00:10:57;;;;;;;5.28;3.42;;;;;;;18.44;100.00;99624.05;1831538;77;21027;-65
2022/07/28 00:13:25;;;;;;;4.85;3.08;;;;;;;18.37;100.00;99629.50;1831029;77;21027;-65
2022/07/28 00:15:53;;;;;;;4.33;3.20;;;;;;;18.27;100.00;99629.02;1836702;77;21475;-66
2022/07/28 00:18:19;;;;;;;5.22;2.80;;;;;;;18.19;100.00;99638.91;1828524;77;21122;-65
2022/07/28 00:20:46;;;;;;;3.72;2.95;;;;;;;18.19;100.00;99635.33;1829710;77;21052;-66
2022/07/28 00:23:14;;;;;;;5.12;3.20;;;;;;;18.15;100.00;99635.73;1846322;77;21018;-65
2022/07/28 00:25:41;;;;;;;4.40;2.92;;;;;;;18.07;100.00;99635.16;1842603;77;21022;-65
2022/07/28 00:28:07;;;;;;;3.62;2.92;;;;;;;18.00;100.00;99637.58;1830100;77;20994;-65
2022/07/28 00:30:34;;;;;;;4.10;3.20;;;;;;;17.96;100.00;99639.39;1838919;77;20989;-67
2022/07/28 00:33:01;;;;;;;4.40;3.00;;;;;;;17.88;100.00;99636.86;1840515;77;21058;-66
2022/07/28 00:35:27;;;;;;;4.17;2.92;;;;;;;17.85;100.00;99647.93;1837674;77;21565;-66
2022/07/28 00:37:54;;;;;;;5.10;3.25;;;;;;;17.81;100.00;99651.67;1837093;77;21088;-65
2022/07/28 00:40:21;;;;;;;3.77;2.98;;;;;;;17.78;100.00;99650.94;1842529;77;21061;-66
2022/07/28 00:42:47;;;;;;;4.42;3.10;;;;;;;17.79;100.00;99652.55;1831550;77;21046;-66
2022/07/28 00:45:14;;;;;;;3.65;2.87;;;;;;;17.82;100.00;99652.71;1829317;77;21006;-66
2022/07/28 00:47:41;;;;;;;3.05;2.50;;;;;;;17.85;100.00;99651.28;1834447;77;21464;-66
2022/07/28 00:50:08;;;;;;;;;;;;;;;17.87;100.00;99653.13;1839832;77;21493;-66
2022/07/28 00:52:36;;;;;;;3.87;2.83;;;;;;;17.82;100.00;99653.27;1809827;77;20087;-66
2022/07/28 00:55:04;;;;;;;4.80;2.62;;;;;;;17.71;100.00;99645.88;1836760;77;21587;-66
2022/07/28 00:57:31;;;;;;;4.70;2.70;;;;;;;17.67;100.00;99633.10;1834845;77;21047;-66
2022/07/28 00:59:57;;;;;;;3.05;2.70;;;;;;;17.66;100.00;99625.97;1816014;77;21073;-66
2022/07/28 01:02:24;;;;;;;3.87;2.90;;;;;;;17.63;100.00;99625.23;1838942;77;21136;-65
2022/07/28 01:04:50;;;;;;;6.12;2.90;;;;;;;17.60;100.00;99634.14;1834757;77;21465;-66
2022/07/28 01:07:42;;;;;;;4.03;3.00;;;;;;;17.57;100.00;99639.70;1847386;77;21054;-65
2022/07/28 01:10:29;;;;;;;4.33;2.95;;;;;;;17.54;100.00;99641.69;1833746;77;20954;-66
2022/07/28 01:13:14;;;;;;;4.92;2.72;;;;;;;17.49;100.00;99649.30;1840064;77;21074;-66
2022/07/28 01:15:52;;;;;;;3.00;2.60;;;;;;;17.43;100.00;99646.67;1827476;77;20971;-65
2022/07/28 01:18:25;;;;;;;5.53;2.67;;;;;;;17.43;100.00;99659.06;1832451;77;20986;-65
2022/07/28 01:21:04;;;;;;;3.87;2.60;;;;;;;17.41;100.00;99657.20;1831037;77;20992;-65
2022/07/28 01:23:52;;;;;;;3.35;2.50;;;;;;;17.38;100.00;99648.22;1840287;77;21077;-65
2022/07/28 01:26:40;;;;;;;;;;;;;;;17.35;100.00;99648.04;1838922;77;21074;-67
2022/07/28 01:29:47;;;;;;;3.52;2.60;;;;;;;17.33;100.00;99651.09;1844854;77;20398;-65
2022/07/28 01:32:24;;;;;;;3.75;2.67;;;;;;;17.29;100.00;99657.55;1834509;77;21603;-66
2022/07/28 01:35:19;;;;;;;4.40;2.80;;;;;;;17.27;100.00;99657.06;1827824;77;20990;-68
2022/07/28 01:37:47;;;;;;;4.53;2.60;;;;;;;17.26;100.00;99653.50;1832463;77;21529;-66
2022/07/28 01:40:17;;;;;;;4.53;2.80;;;;;;;17.25;100.00;99657.37;1832322;77;21010;-65
2022/07/28 01:42:48;;;;;;;3.25;2.67;;;;;;;17.22;100.00;99653.88;1834637;77;21117;-66
2022/07/28 01:45:15;;;;;;;3.58;2.77;;;;;;;17.16;100.00;99653.78;1849131;77;21003;-67
2022/07/28 01:47:44;;;;;;;4.90;2.70;;;;;;;17.09;100.00;99657.55;1830521;77;21070;-66
2022/07/28 01:50:14;;;;;;;3.90;2.50;;;;;;;17.03;100.00;99654.70;1832471;77;21056;-67
2022/07/28 01:52:41;;;;;;;3.55;2.70;;;;;;;17.01;100.00;99658.87;1831775;77;21042;-66
2022/07/28 01:55:08;;;;;;;6.62;3.25;;;;;;;16.99;100.00;99669.39;1846044;77;21453;-67
2022/07/28 01:57:36;;;;;;;4.10;2.58;;;;;;;16.98;100.00;99669.95;1837337;77;21145;-67
2022/07/28 02:00:06;;;;;;;4.85;2.45;;;;;;;16.96;100.00;99663.97;1833785;77;20987;-67
2022/07/28 02:02:37;;;;;;;4.47;2.87;;;;;;;16.93;100.00;99666.76;1842718;77;21572;-67
2022/07/28 02:05:04;;;;;;;3.60;2.87;;;;;;;16.92;100.00;99662.97;1798449;77;20951;-66
2022/07/28 02:07:31;;;;;;;3.90;3.08;;;;;;;16.89;100.00;99659.48;1834605;77;21000;-67
2022/07/28 02:09:57;;;;;;;5.40;2.98;;;;;;;16.81;100.00;99658.86;1835080;77;21840;-66
2022/07/28 02:12:25;;;;;;;7.15;3.17;;;;;;;16.77;100.00;99661.98;1835373;77;21427;-67
2022/07/28 02:14:53;;;;;;;3.12;2.80;;;;;;;16.74;100.00;99666.18;1837286;77;20991;-67
2022/07/28 02:17:27;;;;;;;3.75;3.08;;;;;;;16.70;100.00;99662.43;1835194;77;21019;-67
2022/07/28 02:19:53;;;;;;;3.80;2.92;;;;;;;16.66;100.00;99670.23;1838191;77;20982;-67
2022/07/28 02:22:20;;;;;;;5.35;3.02;;;;;;;16.63;100.00;99665.37;1825726;78;21735;-66
2022/07/28 02:24:46;;;;;;;4.70;2.83;;;;;;;16.63;100.00;99673.61;1833879;77;21006;-67
2022/07/28 02:27:30;;;;;;;4.55;2.70;;;;;;;16.65;100.00;99674.91;1832187;77;21645;-66
2022/07/28 02:30:08;;;;;;;3.45;2.70;;;;;;;16.66;100.00;99678.48;1836811;77;21038;-67
2022/07/28 02:32:53;;;;;;;3.37;2.65;;;;;;;16.66;100.00;99683.42;1827701;77;21070;-67
2022/07/28 02:35:44;;;;;;;4.17;2.90;;;;;;;16.68;100.00;99679.81;1832274;77;21010;-67
2022/07/28 02:38:21;;;;;;;5.53;3.00;;;;;;;16.68;100.00;99670.75;1838220;77;21482;-67
2022/07/28 02:40:48;;;;;;;4.72;3.30;;;;;;;16.65;100.00;99678.25;1837751;77;20970;-67
2022/07/28 02:43:16;;;;;;;4.17;2.95;;;;;;;16.56;100.00;99671.30;1838876;77;21034;-66
2022/07/28 02:45:46;;;;;;;4.60;3.10;;;;;;;16.57;100.00;99671.56;1811954;78;20964;-66
2022/07/28 02:48:14;;;;;;;3.72;3.17;;;;;;;16.57;100.00;99691.36;1833251;77;21530;-67
2022/07/28 02:50:43;;;;;;;4.95;3.27;;;;;;;16.54;100.00;99690.58;1836282;77;20946;-67
2022/07/28 02:53:09;;;;;;;4.35;3.20;;;;;;;16.51;100.00;99700.24;1814395;77;21046;-66
2022/07/28 02:55:36;;;;;;;;;;;;;;;16.48;100.00;99698.67;1837902;77;21502;-67
2022/07/28 02:58:03;;;;;;;6.00;3.20;;;;;;;16.46;100.00;99700.94;1841148;77;20115;-66
2022/07/28 03:00:30;;;;;;;4.92;3.37;;;;;;;16.41;100.00;99693.62;1797332;77;21502;-67
2022/07/28 03:02:56;;;;;;;;;;;;;;;16.44;100.00;99695.73;1844422;77;21050;-67
2022/07/28 03:05:24;;;;;;;3.25;2.90;;;;;;;16.46;100.00;99696.26;1843109;77;20431;-66
2022/07/28 03:07:54;;;;;;;3.65;3.35;;;;;;;16.41;100.00;99690.88;1840606;77;21168;-67
2022/07/28 03:10:26;;;;;;;4.25;2.98;;;;;;;16.41;100.00;99682.07;1837959;77;20978;-66
2022/07/28 03:12:55;;;;;;;4.05;3.40;;;;;;;16.48;100.00;99686.31;1833290;77;21117;-66
2022/07/28 03:15:23;;;;;;;4.42;2.95;;;;;;;16.49;100.00;99689.32;1819470;77;21030;-66
2022/07/28 03:17:50;;;;;;;4.45;2.90;;;;;;;16.51;100.00;99696.70;1834154;77;21030;-67
2022/07/28 03:20:16;;;;;;;3.80;2.90;;;;;;;16.57;100.00;99689.98;1840639;77;20998;-66
2022/07/28 03:22:43;;;;;;;5.42;2.92;;;;;;;16.62;100.00;99685.72;1835487;77;21569;-67
2022/07/28 03:25:18;;;;;;;4.37;3.10;;;;;;;16.68;100.00;99696.30;1840319;77;21021;-66
2022/07/28 03:27:47;;;;;;;4.70;3.63;;;;;;;16.81;100.00;99701.47;1843442;77;21126;-66
2022/07/28 03:30:18;;;;;;;4.05;3.37;;;;;;;16.81;100.00;99701.47;1836979;77;22524;-67
2022/07/28 03:32:47;;;;;;;4.05;3.05;;;;;;;16.88;100.00;99698.53;1849052;77;21014;-66
2022/07/28 03:35:14;;;;;;;5.35;3.05;;;;;;;16.91;100.00;99699.83;1845833;77;21446;-66
2022/07/28 03:37:56;;;;;;;3.22;2.60;;;;;;;16.93;100.00;99700.34;1840441;77;21065;-66
2022/07/28 03:40:28;;;;;;;5.67;3.42;;;;;;;16.96;100.00;99700.27;1830426;77;21002;-65
2022/07/28 03:42:55;;;;;;;3.62;2.95;;;;;;;16.95;100.00;99703.58;1837368;77;21086;-66
2022/07/28 03:45:22;;;;;;;5.15;3.20;;;;;;;16.96;100.00;99705.21;1833399;77;20986;-66
2022/07/28 03:47:57;;;;;;;4.00;3.10;;;;;;;16.97;100.00;99704.06;1833223;77;21086;-66
2022/07/28 03:50:28;;;;;;;4.58;2.90;;;;;;;17.08;100.00;99710.92;1837827;77;21006;-67
2022/07/28 03:52:56;;;;;;;5.42;3.20;;;;;;;17.25;100.00;99717.11;1837598;77;21506;-66
2022/07/28 03:55:22;;;;;;;3.85;2.90;;;;;;;17.38;100.00;99714.81;1832235;77;20980;-67
2022/07/28 03:57:50;;;;;;;5.10;3.02;;;;;;;17.60;100.00;99726.34;1822057;77;21629;-67
2022/07/28 04:00:16;;;;;;;4.67;2.98;;;;;;;17.78;100.00;99720.56;1834087;77;20950;-67
2022/07/28 04:02:44;;;;;;;4.05;2.90;;;;;;;17.98;100.00;99726.61;1827875;77;21050;-65
2022/07/28 04:05:13;;;;;;;4.28;2.55;;;;;;;18.23;100.00;99733.56;1834967;77;21038;-67
2022/07/28 04:07:41;;;;;;;5.05;3.15;;;;;;;18.54;100.00;99725.17;1828687;77;21065;-66
2022/07/28 04:10:10;;;;;;;3.10;2.60;;;;;;;18.79;100.00;99722.97;1823362;77;21041;-66
2022/07/28 04:12:54;;;;;;;4.60;2.80;;;;;;;19.17;100.00;99729.13;1832305;77;21031;-67
2022/07/28 04:15:21;;;;;;;4.62;2.70;;;;;;;19.63;100.00;99724.20;1835979;77;20962;-66
2022/07/28 04:17:48;;;;;;;6.15;2.55;;;;;;;20.14;100.00;99720.36;1834722;77;21482;-66
2022/07/28 04:20:16;;;;;;;5.33;2.72;;;;;;;20.34;100.00;99709.91;1837362;77;21042;-66
2022/07/28 04:22:44;;;;;;;3.87;2.10;;;;;;;20.41;100.00;99706.61;1829862;77;21044;-68
2022/07/28 04:25:13;;;;;;;3.65;2.00;;;;;;;20.48;100.00;99698.58;1839540;77;21049;-67
2022/07/28 04:27:41;;;;;;;3.55;2.27;;;;;;;20.41;100.00;99693.59;1841530;77;21018;-68
2022/07/28 04:30:15;;;;;;;3.90;2.45;;;;;;;20.41;100.00;99699.69;1842697;77;20986;-67
2022/07/28 04:32:44;;;;;;;3.27;2.00;;;;;;;20.47;100.00;99684.54;1844593;77;21631;-66
2022/07/28 04:35:10;;;;;;;2.95;1.85;;;;;;;20.56;100.00;99690.22;1837735;77;21029;-67
2022/07/28 04:37:37;;;;;;;4.10;2.20;;;;;;;20.75;100.00;99692.50;1832178;77;21049;-67
2022/07/28 04:40:06;;;;;;;4.53;2.35;;;;;;;20.85;100.00;99694.27;1839346;77;21081;-66
2022/07/28 04:42:35;;;;;;;4.42;2.42;;;;;;;20.87;100.00;99691.14;1828246;77;21472;-67
2022/07/28 04:45:03;;;;;;;5.95;2.90;;;;;;;20.97;100.00;99692.12;1844718;77;21073;-66
2022/07/28 04:47:30;;;;;;;4.05;2.70;;;;;;;21.18;100.00;99694.85;1841491;77;21062;-67
2022/07/28 04:49:56;;;;;;;4.28;2.60;;;;;;;21.32;100.00;99687.03;1835936;77;21033;-67
2022/07/28 04:52:22;;;;;;;4.75;2.58;;;;;;;21.51;100.00;99689.22;1829841;77;21478;-66
2022/07/28 04:54:49;;;;;;;6.55;2.20;;;;;;;21.63;100.00;99682.31;1836750;77;21031;-66
2022/07/28 04:57:17;;;;;;;3.58;2.33;;;;;;;21.58;100.00;99686.11;1846417;77;21093;-67
2022/07/28 04:59:44;;;;;;;2.95;2.00;;;;;;;21.53;100.00;99680.81;1837641;77;21544;-66
2022/07/28 05:02:11;;;;;;;3.30;2.02;;;;;;;21.64;100.00;99679.78;1834322;77;21081;-67
2022/07/28 05:04:39;;;;;;;3.75;2.10;;;;;;;21.56;100.00;99686.23;1836328;77;21005;-67
2022/07/28 05:07:06;;;;;;;4.40;1.77;;;;;;;21.49;100.00;99688.77;1836647;77;21003;-66
2022/07/28 05:09:34;;;;;;;3.58;1.72;;;;;;;21.44;100.00;99691.18;1836033;77;21600;-67
2022/07/28 05:12:00;;;;;;;3.70;1.90;;;;;;;21.44;100.00;99691.18;1829968;77;21502;-67
2022/07/28 05:14:26;;;;;;;4.55;1.80;;;;;;;21.39;100.00;99692.00;1837447;77;21043;-66
2022/07/28 05:16:54;;;;;;;4.47;2.00;;;;;;;21.40;100.00;99695.00;1832919;77;21653;-65
2022/07/28 05:19:20;;;;;;;4.12;1.77;;;;;;;21.40;100.00;99695.00;1838285;77;21513;-66
2022/07/28 05:21:47;;;;;;;3.10;1.60;;;;;;;21.42;100.00;99699.03;1836358;77;21496;-66
2022/07/28 05:24:13;;;;;;;2.87;1.62;;;;;;;21.55;100.00;99712.31;1847259;77;21025;-67
2022/07/28 05:26:40;;;;;;;2.95;1.70;;;;;;;21.70;100.00;99695.01;1847073;77;21034;-66
2022/07/28 05:29:07;;;;;;;3.60;1.40;;;;;;;21.70;100.00;99695.01;1835843;77;21050;-66
2022/07/28 05:31:33;;;;;;;4.30;1.85;;;;;;;21.68;100.00;99695.95;1833074;77;21497;-66
2022/07/28 05:33:59;;;;;;;3.15;1.50;;;;;;;21.58;100.00;99697.77;1829212;77;21042;-67
2022/07/28 05:36:26;;;;;;;5.45;1.67;;;;;;;21.61;100.00;99703.42;1832719;77;21014;-65
2022/07/28 05:38:52;;;;;;;4.45;1.40;;;;;;;21.86;100.00;99702.84;1830233;77;21585;-66
2022/07/28 05:41:19;;;;;;;5.08;1.52;;;;;;;21.86;100.00;99702.84;1831134;77;21046;-67
2022/07/28 05:43:46;;;;;;;3.40;1.17;;;;;;;21.91;100.00;99708.77;1837021;77;21097;-66
2022/07/28 05:46:13;;;;;;;3.60;1.20;;;;;;;21.91;100.00;99708.77;1851004;77;21058;-65
2022/07/28 05:48:39;;;;;;;3.70;0.93;;;;;;;21.98;100.00;99711.19;1834901;77;21502;-67
2022/07/28 05:51:06;;;;;;;3.35;1.00;;;;;;;22.07;100.00;99712.47;1855246;77;21037;-65
2022/07/28 05:53:32;;;;;;;5.33;0.90;;;;;;;22.08;100.00;99704.35;1843071;77;21057;-67
2022/07/28 05:55:59;;;;;;;3.65;1.10;;;;;;;22.07;100.00;99712.47;1835465;76;20979;-66
2022/07/28 05:58:25;;;;;;;5.67;1.00;;;;;;;22.08;100.00;99714.06;1841267;76;20962;-66
2022/07/28 06:00:52;;;;;;;5.20;1.00;;;;;;;22.18;100.00;99716.34;1833630;77;21042;-66
2022/07/28 06:03:19;;;;;;;5.30;1.10;;;;;;;22.30;100.00;99721.88;1831615;77;21022;-66
2022/07/28 06:05:47;;;;;;;2.42;1.22;;;;;;;22.41;100.00;99720.81;1827485;77;21050;-66
2022/07/28 06:08:13;;;;;;;2.55;0.80;;;;;;;22.41;100.00;99728.56;1822759;76;20939;-66
2022/07/28 06:10:58;;;;;;;3.52;1.00;;;;;;;22.39;100.00;99723.93;1829304;77;21018;-66
2022/07/28 06:13:24;;;;;;;2.98;0.80;;;;;;;22.49;100.00;99726.24;1817918;77;21384;-68
2022/07/28 06:15:51;;;;;;;2.95;1.05;;;;;;;22.51;100.00;99716.16;1834747;77;21061;-67
2022/07/28 06:18:19;;;;;;;3.70;0.88;;;;;;;22.59;100.00;99724.36;1834105;77;20974;-65
2022/07/28 06:20:46;;;;;;;2.02;0.70;;;;;;;22.63;100.00;99730.01;1837640;77;21008;-67
2022/07/28 06:23:20;;;;;;;3.25;0.90;;;;;;;22.76;100.00;99728.83;1831473;77;20968;-66
2022/07/28 06:25:47;;;;;;;2.58;1.02;;;;;;;22.91;100.00;99729.47;1773649;80;21025;-64
2022/07/28 06:28:14;;;;;;;4.53;1.55;;;;;;;23.04;100.00;99720.48;1781228;79;21785;-65
2022/07/28 06:30:40;;;;;;;5.40;1.15;;;;;;;23.14;100.00;99727.72;1786101;79;21501;-65
2022/07/28 06:33:08;;;;;;;5.70;1.40;;;;;;;23.16;100.00;99728.19;1781465;80;21077;-65
2022/07/28 06:35:35;;;;;;;2.75;0.90;;;;;;;23.28;100.00;99728.09;1789486;79;21038;-65
2022/07/28 06:38:01;;;;;;;2.35;0.80;;;;;;;23.30;100.00;99728.56;1782229;79;21093;-65
2022/07/28 06:40:30;;;;;;;3.52;1.10;;;;;;;23.40;100.00;99731.97;1769907;80;21074;-65
2022/07/28 06:42:57;;;;;;;2.30;0.80;;;;;;;23.51;100.00;99732.51;1772705;79;21041;-65
2022/07/28 06:45:23;;;;;;;2.98;0.80;;;;;;;23.41;100.00;99732.20;1768045;80;21022;-66
2022/07/28 06:47:51;;;;;;;3.50;0.90;;;;;;;23.36;100.00;99736.05;1769186;80;21046;-65
2022/07/28 06:50:17;;;;;;;3.70;1.00;;;;;;;23.50;100.00;99728.69;1782491;80;21039;-66
2022/07/28 06:52:44;;;;;;;4.15;0.90;;;;;;;23.78;100.00;99740.52;1768394;80;21082;-66
2022/07/28 06:55:14;;;;;;;1.95;0.72;;;;;;;23.86;100.00;99736.76;1779569;80;21062;-65
2022/07/28 06:57:41;;;;;;;2.08;0.70;;;;;;;24.03;100.00;99743.91;1770805;79;21101;-66
2022/07/28 07:00:11;;;;;;;4.80;1.00;;;;;;;23.95;100.00;99734.58;1770963;80;21027;-66
2022/07/28 07:02:39;;;;;;;2.85;0.70;;;;;;;24.08;100.00;99740.86;1754421;80;21601;-65
2022/07/28 07:05:07;;;;;;;7.30;0.82;;;;;;;24.18;100.00;99738.94;1777193;80;21038;-66
2022/07/28 07:07:36;;;;;;;4.08;1.10;;;;;;;24.15;100.00;99741.05;1767867;80;21054;-66
2022/07/28 07:10:04;;;;;;;2.45;0.70;;;;;;;24.10;100.00;99735.15;1778405;80;21050;-65
2022/07/28 07:12:33;;;;;;;4.75;0.70;;;;;;;24.05;100.00;99742.98;1770972;80;21138;-65
2022/07/28 07:15:02;;;;;;;4.10;0.70;;;;;;;24.02;100.00;99738.92;1781066;80;21062;-66
2022/07/28 07:17:31;;;;;;;2.27;0.68;;;;;;;24.08;100.00;99745.03;1782418;80;21023;-66
2022/07/28 07:19:59;;;;;;;3.45;0.60;;;;;;;24.04;100.00;99744.95;1769270;80;21062;-65
2022/07/28 07:22:26;;;;;;;3.15;1.02;;;;;;;24.20;100.00;99744.93;1777549;80;21126;-67
2022/07/28 07:24:53;;;;;;;4.42;1.17;;;;;;;24.28;100.00;99744.75;1776560;80;21034;-66
2022/07/28 07:27:20;;;;;;;3.10;0.70;;;;;;;24.36;100.00;99747.69;1771514;80;21613;-66
2022/07/28 07:29:48;;;;;;;1.75;0.50;;;;;;;24.49;100.00;99753.34;1775996;80;21050;-67
2022/07/28 07:32:14;;;;;;;3.65;0.70;;;;;;;24.69;100.00;99741.08;1773144;80;21552;-66
2022/07/28 07:34:42;;;;;;;3.45;0.78;;;;;;;24.91;100.00;99747.89;1774298;80;21036;-66
2022/07/28 07:37:12;;;;;;;6.12;0.78;;;;;;;25.00;100.00;99749.89;1775027;80;21066;-66
2022/07/28 07:39:37;;;;;;;3.05;0.70;;;;;;;25.10;100.00;99754.86;1771925;80;21026;-66
2022/07/28 07:42:04;;;;;;;1.55;0.50;;;;;;;25.15;100.00;99759.53;1781370;80;21035;-67
2022/07/28 07:44:31;;;;;;;2.98;0.88;;;;;;;25.09;100.00;99759.62;1769405;80;21053;-66
2022/07/28 07:46:57;;;;;;;5.03;0.80;;;;;;;25.15;100.00;99752.56;1768669;81;21022;-65
2022/07/28 07:49:24;;;;;;;3.17;0.53;;;;;;;25.26;100.00;99754.16;1768438;81;21034;-65
2022/07/28 07:51:51;;;;;;;2.77;0.82;;;;;;;25.22;86.09;99755.48;1752947;80;21066;-64
2022/07/28 07:54:17;;;;;;;2.83;0.62;;;;;;;25.08;91.75;99764.96;1758541;80;21014;-66
2022/07/28 07:56:44;;;;;;;1.77;0.60;;;;;;;25.18;99.85;99756.61;1753095;81;21711;-65
2022/07/28 07:59:10;;;;;;;2.83;0.47;;;;;;;25.33;89.55;99761.88;1762795;79;20970;-66
2022/07/28 08:01:37;;;;;;;2.45;0.60;;;;;;;25.29;84.81;99761.00;1779341;80;20999;-65
2022/07/28 08:04:04;;;;;;;2.02;0.70;;;;;;;25.11;86.76;99762.86;1738719;81;21062;-65
2022/07/28 08:06:30;;;;;;;2.10;0.65;;;;;;;25.03;89.01;99769.45;1767355;80;21108;-66
2022/07/28 08:08:57;;;;;;;1.92;0.60;;;;;;;24.90;92.17;99769.97;1767191;80;21554;-66
2022/07/28 08:11:25;;;;;;;4.12;0.60;;;;;;;24.85;100.00;99772.45;1776543;80;21136;-66
2022/07/28 08:13:52;;;;;;;1.85;0.47;;;;;;;25.02;91.98;99765.05;1776797;79;21010;-67
2022/07/28 08:16:19;;;;;;;3.98;0.60;;;;;;;25.18;87.89;99760.80;1750052;80;21027;-67
2022/07/28 08:18:46;;;;;;;2.47;0.50;;;;;;;25.18;88.85;99762.19;1761502;81;20990;-66
2022/07/28 08:21:15;;;;;;;5.22;1.85;;;;;;;25.15;80.79;99768.50;1767343;79;21061;-66
2022/07/28 08:23:41;;;;;;;2.30;0.65;;;;;;;25.19;84.36;99763.77;1780905;80;21433;-66
2022/07/28 08:26:07;;;;;;;1.85;0.50;;;;;;;25.25;87.39;99765.92;1735101;81;21694;-67
2022/07/28 08:28:34;;;;;;;3.12;0.62;;;;;;;25.33;81.60;99766.05;1774997;80;21044;-66
2022/07/28 08:31:01;;;;;;;2.40;0.68;;;;;;;25.39;76.68;99775.72;1778313;80;21025;-68
2022/07/28 08:33:27;;;;;;;6.12;1.55;;;;;;;25.43;75.92;99768.23;1773821;79;20994;-67
2022/07/28 08:35:54;;;;;;;5.00;0.98;;;;;;;25.46;76.84;99768.30;1752726;80;21046;-66
2022/07/28 08:38:20;;;;;;;4.03;1.80;;;;;;;25.53;78.60;99763.47;1779020;79;21516;-67
2022/07/28 08:40:48;;;;;;;4.55;1.50;;;;;;;25.59;77.62;99773.13;1762513;80;21077;-67
2022/07/28 08:43:30;;;;;;;4.58;2.33;;;;;;;25.59;79.26;99768.94;1751057;80;21522;-66
2022/07/28 08:45:57;;;;;;;1.45;0.75;;;;;;;25.64;78.68;99764.47;1777593;80;21898;-67
2022/07/28 08:48:24;;;;;;;2.25;0.70;;;;;;;25.78;73.79;99767.50;1778327;78;21314;-67
2022/07/28 08:50:50;;;;;;;3.37;0.62;;;;;;;25.88;71.43;99767.45;1756729;81;21011;-65
2022/07/28 08:53:19;;;;;;;2.27;0.60;;;;;;;25.87;70.62;99756.88;1776988;78;20962;-64
2022/07/28 08:55:47;;;;;;;2.75;1.00;;;;;;;26.02;72.54;99762.91;1776860;78;20954;-66
2022/07/28 08:58:15;;;;;;;4.67;1.30;;;;;;;26.18;69.49;99762.19;1770725;78;21762;-66
2022/07/28 09:00:42;;;;;;;4.55;1.70;;;;;;;26.21;65.86;99778.80;1743207;81;21021;-66
2022/07/28 09:03:10;;;;;;;9.80;4.80;;;;;;;26.15;59.12;99764.89;1758726;81;20958;-67
2022/07/28 09:05:38;;;;;;;5.33;1.77;;;;;;;26.01;64.51;99763.28;1783405;78;20974;-67
2022/07/28 09:08:06;;;;;;;4.12;1.62;;;;;;;25.96;66.83;99761.63;1764736;81;21561;-66
2022/07/28 09:10:33;;;;;;;4.08;1.35;;;;;;;26.04;66.83;99752.80;1772181;79;21023;-67
2022/07/28 09:13:01;;;;;;;5.80;2.42;;;;;;;26.23;66.84;99769.45;1762390;80;21029;-67
2022/07/28 09:15:28;;;;;;;1.87;0.70;;;;;;;26.27;59.88;99765.31;1748844;80;21041;-67
2022/07/28 09:17:54;;;;;;;4.03;0.90;;;;;;;26.15;58.54;99774.66;1756915;81;21074;-66
2022/07/28 09:20:21;;;;;;;2.83;0.65;;;;;;;26.05;59.06;99770.53;1777219;78;21021;-66
2022/07/28 09:22:59;;;;;;;1.80;0.70;;;;;;;25.92;61.35;99776.69;1769619;79;21081;-65
2022/07/28 09:25:26;;;;;;;4.83;0.60;;;;;;;25.91;64.89;99767.52;1756871;80;21025;-66
2022/07/28 09:27:53;;;;;;;4.65;0.93;;;;;;;25.97;60.78;99771.59;1764185;81;21067;-66
2022/07/28 09:30:31;;;;;;;1.77;0.60;;;;;;;25.91;61.81;99780.64;1788515;80;21005;-66
2022/07/28 09:33:21;;;;;;;2.92;0.85;;;;;;;25.78;62.48;99775.86;1789445;78;21034;-67
2022/07/28 09:35:55;;;;;;;5.67;0.78;;;;;;;25.67;62.67;99777.07;1788322;80;21074;-67
2022/07/28 09:38:24;;;;;;;3.37;0.70;;;;;;;25.63;59.23;99782.36;1790130;80;21367;-66
2022/07/28 09:41:07;;;;;;;2.30;1.02;;;;;;;25.48;61.49;99780.45;1758410;81;20984;-64
2022/07/28 09:43:42;;;;;;;2.90;0.95;;;;;;;25.26;65.78;99779.23;1735192;81;21058;-65
2022/07/28 09:46:17;;;;;;;4.00;1.12;;;;;;;25.06;71.69;99765.92;1773474;79;21523;-65
2022/07/28 09:48:56;;;;;;;1.85;0.80;;;;;;;25.09;75.83;99781.90;1761420;80;20984;-64
2022/07/28 09:51:29;;;;;;;5.10;0.82;;;;;;;25.10;76.52;99775.16;1761660;80;21064;-66
2022/07/28 09:54:10;;;;;;;1.98;0.70;;;;;;;24.99;78.52;99777.50;1778828;79;21521;-65
2022/07/28 09:56:42;;;;;;;3.60;0.72;;;;;;;24.96;78.85;99782.42;1788903;79;21598;-66
2022/07/28 09:59:10;;;;;;;2.77;0.50;;;;;;;24.95;73.39;99780.22;1769101;80;21058;-66
2022/07/28 10:01:58;;;;;;;2.67;0.60;;;;;;;24.99;79.95;99785.86;1790470;79;21042;-64
2022/07/28 10:04:40;;;;;;;2.37;0.82;;;;;;;25.05;74.83;99792.16;1801433;79;21038;-65
2022/07/28 10:07:09;;;;;;;2.98;0.70;;;;;;;25.08;79.81;99783.06;1796732;79;21035;-65
2022/07/28 10:09:37;;;;;;;1.90;0.53;;;;;;;25.16;74.59;99782.63;1777860;80;20959;-63
2022/07/28 10:12:21;;;;;;;2.60;0.80;;;;;;;25.14;70.68;99783.59;1788067;79;21124;-66
2022/07/28 10:14:50;;;;;;;2.95;0.60;;;;;;;25.00;69.12;99783.30;1782906;79;20995;-65
2022/07/28 10:17:32;;;;;;;2.35;0.70;;;;;;;24.93;72.36;99791.52;1801866;79;21579;-66
2022/07/28 10:20:06;;;;;;;3.80;0.82;;;;;;;24.94;69.77;99782.77;1780668;79;21477;-66
2022/07/28 10:22:36;;;;;;;1.40;0.60;;;;;;;24.91;71.47;99783.51;1769033;80;21089;-65
2022/07/28 10:25:13;;;;;;;3.75;0.70;;;;;;;24.89;77.24;99779.48;1776132;79;21078;-65
2022/07/28 10:27:41;;;;;;;1.90;0.60;;;;;;;24.92;76.84;99786.52;1788423;80;21029;-64
2022/07/28 10:30:09;;;;;;;2.52;0.50;;;;;;;24.94;70.57;99786.17;1777504;80;21613;-65
2022/07/28 10:32:43;;;;;;;2.58;0.65;;;;;;;24.95;78.63;99779.41;1789960;79;21047;-64
2022/07/28 10:35:12;;;;;;;3.00;0.75;;;;;;;25.02;73.10;99778.97;1788527;79;21045;-65
2022/07/28 10:37:58;;;;;;;1.92;0.50;;;;;;;25.08;73.64;99768.36;1805896;79;21078;-65
2022/07/28 10:40:35;;;;;;;3.40;0.60;;;;;;;25.12;71.81;99772.80;1781140;80;21003;-64
2022/07/28 10:43:01;;;;;;;2.45;0.70;;;;;;;25.06;72.38;99772.08;1773896;79;21043;-66
2022/07/28 10:45:29;;;;;;;3.15;0.60;;;;;;;25.07;71.21;99779.27;1774211;79;21542;-65
2022/07/28 10:47:55;;;;;;;2.47;0.72;;;;;;;25.13;71.85;99774.42;1786781;80;21406;-66
2022/07/28 10:50:22;;;;;;;4.05;0.55;;;;;;;25.11;72.73;99766.23;1774634;80;21090;-66
2022/07/28 10:52:48;;;;;;;3.37;0.70;;;;;;;25.17;71.92;99776.70;1789436;80;21050;-65
2022/07/28 10:55:33;;;;;;;1.32;0.60;;;;;;;25.20;70.77;99775.95;1777837;79;21125;-66
2022/07/28 10:58:15;;;;;;;2.58;0.60;;;;;;;25.26;70.59;99768.09;1767116;80;21027;-65
2022/07/28 11:00:52;;;;;;;2.08;0.70;;;;;;;25.31;68.95;99772.56;1781720;80;21082;-64
2022/07/28 11:03:46;;;;;;;3.42;0.70;;;;;;;25.40;71.58;99785.08;1767425;80;20939;-65
2022/07/28 11:06:38;;;;;;;1.80;0.60;;;;;;;25.36;68.13;99777.84;1769128;80;21565;-65
2022/07/28 11:09:21;;;;;;;1.17;0.55;;;;;;;25.17;72.82;99780.06;1761921;80;21015;-64
2022/07/28 11:11:56;;;;;;;2.05;0.50;;;;;;;25.17;67.46;99776.70;1786800;80;21066;-65
2022/07/28 11:14:29;;;;;;;2.15;0.50;;;;;;;25.19;68.98;99774.34;1785450;79;21512;-65
2022/07/28 11:17:09;;;;;;;2.67;0.70;;;;;;;25.24;68.67;99778.23;1778700;80;21050;-65
2022/07/28 11:19:52;;;;;;;5.15;0.98;;;;;;;25.33;64.43;99773.02;1788735;80;21369;-66
2022/07/28 11:22:26;;;;;;;2.10;0.60;;;;;;;25.35;67.77;99768.68;1773596;80;21049;-65
2022/07/28 11:25:03;;;;;;;2.77;0.53;;;;;;;25.40;68.48;99768.98;1786280;80;21023;-64
2022/07/28 11:27:45;;;;;;;2.22;0.55;;;;;;;25.39;66.29;99767.36;1782253;80;21554;-63
2022/07/28 11:30:35;;;;;;;3.98;0.80;;;;;;;25.41;68.29;99762.20;1776558;80;21046;-65
2022/07/28 11:32:55;;;;;;;2.25;0.80;;;;;;;25.44;67.52;99753.91;1775672;80;21089;-69
2022/07/28 11:35:29;;;;;;;1.90;0.70;;;;;;;25.44;64.18;99760.88;1777988;80;21047;-70
2022/07/28 11:38:06;;;;;;;2.67;0.80;;;;;;;25.43;64.21;99763.47;1775433;80;21047;-68
2022/07/28 11:40:40;;;;;;;3.20;0.90;;;;;;;25.44;64.90;99760.06;1782490;80;21038;-68
2022/07/28 11:43:29;;;;;;;3.65;0.70;;;;;;;25.51;65.46;99762.42;1778254;80;21112;-69